Time;durP1;ratioP1;P1;durP2;ratioP2;P2;SDS_P1;SDS_P2;PMS_P1;PMS_P2;Temp;Humidity;BMP_temperature;BMP_pressure;BME280_temperature;BME280_humidity;BME280_pressure;Samples;Min_cycle;Max_cycle;Signal;HPM_P1;HPM_P2
2020/12/10 00:00:18;;;;;;;21.90;16.63;;;3.60;91.80;;;;;;10412529;28;20103;-67
2020/12/10 00:05:20;;;;;;;23.30;16.50;;;3.60;92.10;;;;;;10411525;28;20136;-67
2020/12/10 00:10:21;;;;;;;22.35;16.73;;;3.70;91.90;;;;;;10409661;28;20561;-67
2020/12/10 00:15:23;;;;;;;22.10;16.67;;;3.70;91.70;;;;;;10410483;28;20541;-67
2020/12/10 00:20:25;;;;;;;22.77;17.25;;;3.70;91.80;;;;;;10411442;28;20076;-67
2020/12/10 00:25:26;;;;;;;20.63;15.82;;;3.70;91.80;;;;;;10410641;28;20049;-67
2020/12/10 00:30:27;;;;;;;22.45;16.92;;;3.80;91.70;;;;;;10409827;28;20505;-67
2020/12/10 00:35:29;;;;;;;24.33;17.20;;;3.60;91.50;;;;;;10410239;28;20041;-67
2020/12/10 00:40:31;;;;;;;23.88;17.20;;;3.60;91.70;;;;;;10411395;28;20124;-67
2020/12/10 00:45:32;;;;;;;22.60;17.08;;;3.60;91.70;;;;;;10408416;28;20127;-66
2020/12/10 00:50:34;;;;;;;22.30;17.00;;;3.70;91.70;;;;;;10409448;28;20049;-67
2020/12/10 00:55:36;;;;;;;22.85;17.25;;;3.70;91.80;;;;;;10409614;28;20136;-67
2020/12/10 01:00:37;;;;;;;26.25;19.80;;;3.70;91.50;;;;;;10408476;28;20057;-67
2020/12/10 01:05:39;;;;;;;30.38;20.70;;;3.70;91.60;;;;;;10409009;28;20053;-67
2020/12/10 01:10:40;;;;;;;34.20;23.25;;;3.80;91.40;;;;;;10408469;28;20087;-67
2020/12/10 01:15:42;;;;;;;26.77;19.55;;;3.80;91.50;;;;;;10408752;28;20123;-67
2020/12/10 01:20:44;;;;;;;23.60;18.10;;;3.70;91.40;;;;;;10408029;28;20445;-67
2020/12/10 01:25:46;;;;;;;25.40;19.88;;;3.60;91.30;;;;;;10408149;28;20485;-67
2020/12/10 01:30:47;;;;;;;41.40;25.58;;;3.50;91.70;;;;;;10408240;28;20046;-67
2020/12/10 01:35:49;;;;;;;44.00;27.20;;;3.50;91.70;;;;;;10406034;28;20049;-66
2020/12/10 01:40:51;;;;;;;29.88;19.92;;;3.50;91.70;;;;;;10406390;28;20111;-67
2020/12/10 01:45:53;;;;;;;29.17;20.45;;;3.60;91.90;;;;;;10404805;28;20532;-67
2020/12/10 01:50:54;;;;;;;27.52;20.08;;;3.60;91.70;;;;;;10408045;28;20115;-67
2020/12/10 01:55:56;;;;;;;25.20;17.58;;;3.60;91.60;;;;;;10408678;28;20470;-67
2020/12/10 02:00:58;;;;;;;22.50;16.90;;;3.70;91.70;;;;;;10404217;28;20460;-67
2020/12/10 02:05:59;;;;;;;22.90;17.48;;;3.60;91.70;;;;;;10407762;28;20052;-67
2020/12/10 02:11:00;;;;;;;23.08;17.13;;;3.60;91.70;;;;;;10407715;28;20058;-66
2020/12/10 02:16:02;;;;;;;23.20;16.65;;;3.50;91.80;;;;;;10407331;28;20064;-67
2020/12/10 02:21:04;;;;;;;23.02;17.38;;;3.60;91.50;;;;;;10407409;28;20091;-67
2020/12/10 02:26:06;;;;;;;23.35;16.50;;;3.60;91.80;;;;;;10408551;28;20049;-66
2020/12/10 02:31:07;;;;;;;19.95;14.98;;;3.70;91.40;;;;;;10410784;28;20096;-67
2020/12/10 02:36:09;;;;;;;21.08;14.88;;;3.70;91.20;;;;;;10415573;28;20045;-67
2020/12/10 02:41:13;;;;;;;19.75;13.02;;;3.70;90.90;;;;;;10414697;28;20108;-67
2020/12/10 02:46:15;;;;;;;17.42;13.05;;;3.70;91.20;;;;;;10429583;28;20508;-66
2020/12/10 02:51:17;;;;;;;16.38;11.77;;;3.70;91.50;;;;;;10414793;28;20123;-67
2020/12/10 02:56:18;;;;;;;16.90;11.65;;;3.80;91.70;;;;;;10429546;28;20116;-67
2020/12/10 03:01:20;;;;;;;15.45;10.90;;;3.90;91.40;;;;;;10413033;28;20473;-67
2020/12/10 03:06:21;;;;;;;15.48;10.20;;;3.90;91.20;;;;;;10412250;28;20144;-67
2020/12/10 03:11:23;;;;;;;13.00;9.68;;;3.90;91.20;;;;;;10415464;28;20513;-67
2020/12/10 03:16:24;;;;;;;13.65;10.20;;;3.90;91.20;;;;;;10415314;28;20049;-67
2020/12/10 03:21:26;;;;;;;15.77;11.52;;;3.80;91.30;;;;;;10414349;28;20517;-67
2020/12/10 03:26:30;;;;;;;15.82;11.52;;;3.90;91.50;;;;;;10415031;28;20055;-67
2020/12/10 03:31:32;;;;;;;16.35;10.80;;;3.90;91.60;;;;;;10413334;28;20145;-67
2020/12/10 03:37:06;;;;;;;16.23;11.73;;;3.80;91.50;;;;;;10414170;28;20057;-67
2020/12/10 03:42:07;;;;;;;19.35;12.80;;;3.80;91.60;;;;;;10388892;28;20045;-67
2020/12/10 03:47:09;;;;;;;17.20;12.18;;;3.80;91.30;;;;;;10412889;28;20103;-66
2020/12/10 03:52:10;;;;;;;17.13;12.23;;;3.80;91.60;;;;;;10414204;28;20128;-66
2020/12/10 03:57:12;;;;;;;15.68;11.32;;;4.00;91.20;;;;;;10413410;28;20049;-67
2020/12/10 04:02:13;;;;;;;16.58;11.68;;;3.90;91.30;;;;;;10413471;28;20136;-67
2020/12/10 04:07:15;;;;;;;17.40;11.57;;;3.80;91.60;;;;;;10413033;28;20156;-67
2020/12/10 04:12:16;;;;;;;16.60;12.32;;;3.90;91.60;;;;;;10412619;28;20125;-67
2020/12/10 04:17:18;;;;;;;18.58;13.48;;;4.00;91.20;;;;;;10412643;28;20045;-67
2020/12/10 04:22:19;;;;;;;19.25;12.90;;;4.00;91.50;;;;;;10412102;28;20048;-66
2020/12/10 04:27:21;;;;;;;20.38;14.05;;;4.10;91.50;;;;;;10412071;28;20141;-67
2020/12/10 04:32:22;;;;;;;20.33;12.88;;;3.90;91.70;;;;;;10412274;28;20061;-67
2020/12/10 04:37:24;;;;;;;19.50;12.63;;;3.80;91.80;;;;;;10411319;28;20136;-66
2020/12/10 04:42:25;;;;;;;16.70;12.32;;;3.80;91.90;;;;;;10412203;28;20449;-67
2020/12/10 04:47:29;;;;;;;17.65;12.77;;;3.70;92.10;;;;;;10410191;28;20452;-67
2020/12/10 04:52:33;;;;;;;19.52;13.43;;;3.80;92.10;;;;;;10405770;28;20060;-67
2020/12/10 04:57:35;;;;;;;19.42;13.57;;;3.90;92.40;;;;;;10409633;28;20128;-67
2020/12/10 05:02:36;;;;;;;17.95;13.32;;;4.00;92.20;;;;;;10409915;28;20045;-67
2020/12/10 05:07:38;;;;;;;17.88;13.35;;;4.10;91.90;;;;;;10402654;28;20064;-67
2020/12/10 05:12:40;;;;;;;20.95;15.32;;;4.00;91.90;;;;;;10409291;28;20087;-67
2020/12/10 05:17:42;;;;;;;22.45;15.45;;;3.90;91.90;;;;;;10409177;28;20132;-67
2020/12/10 05:22:45;;;;;;;21.13;15.27;;;4.00;91.70;;;;;;10409871;28;20129;-67
2020/12/10 05:27:59;;;;;;;25.48;17.63;;;4.00;91.80;;;;;;10386393;28;20095;-67
2020/12/10 05:33:09;;;;;;;21.92;16.23;;;4.00;91.90;;;;;;10388373;28;20104;-67
2020/12/10 05:38:12;;;;;;;22.10;16.02;;;4.00;91.70;;;;;;10389138;28;20124;-67
2020/12/10 05:43:21;;;;;;;23.42;17.00;;;4.00;91.80;;;;;;10407729;28;20440;-67
2020/12/10 05:48:23;;;;;;;27.20;18.08;;;3.90;91.80;;;;;;10407891;28;20140;-67
2020/12/10 05:53:29;;;;;;;22.48;16.63;;;3.90;91.70;;;;;;10408182;28;20159;-67
2020/12/10 05:58:31;;;;;;;25.17;17.10;;;4.00;91.70;;;;;;10407458;28;20053;-67
2020/12/10 06:03:32;;;;;;;25.23;17.02;;;4.00;92.00;;;;;;10434741;28;20052;-67
2020/12/10 06:08:38;;;;;;;24.00;17.85;;;3.90;92.00;;;;;;10442724;28;20289;-66
2020/12/10 06:13:42;;;;;;;26.40;19.02;;;3.80;91.80;;;;;;10445557;28;20418;-67
2020/12/10 06:19:10;;;;;;;27.67;20.17;;;3.70;92.20;;;;;;10444021;28;20096;-67
2020/12/10 06:24:26;;;;;;;29.33;20.08;;;3.80;91.70;;;;;;10419691;28;20079;-66
2020/12/10 06:29:34;;;;;;;28.42;20.55;;;3.80;91.80;;;;;;10415574;28;20045;-67
2020/12/10 06:34:49;;;;;;;27.60;19.33;;;3.80;91.60;;;;;;10406913;28;20141;-67
2020/12/10 06:39:53;;;;;;;26.35;19.67;;;3.80;91.90;;;;;;10413482;28;20103;-67
2020/12/10 06:44:55;;;;;;;28.75;20.40;;;3.80;92.10;;;;;;10408597;28;20069;-67
2020/12/10 06:49:56;;;;;;;30.38;21.02;;;3.80;91.90;;;;;;10418038;28;20111;-67
2020/12/10 06:55:08;;;;;;;28.02;20.45;;;3.70;92.00;;;;;;10427773;28;20133;-67
2020/12/10 07:00:09;;;;;;;30.15;19.80;;;3.80;92.20;;;;;;10413117;28;20045;-67
2020/12/10 07:05:30;;;;;;;29.25;19.45;;;3.90;92.10;;;;;;10425871;28;20110;-67
2020/12/10 07:10:43;;;;;;;28.50;20.87;;;3.90;92.20;;;;;;10426347;28;20065;-67
2020/12/10 07:15:49;;;;;;;28.23;20.00;;;3.80;92.20;;;;;;10438459;28;20197;-67
2020/12/10 07:20:50;;;;;;;27.88;20.40;;;3.80;92.10;;;;;;10429375;28;20084;-67
2020/12/10 07:25:52;;;;;;;30.92;22.90;;;3.80;92.30;;;;;;10392724;28;20559;-67
2020/12/10 07:30:53;;;;;;;31.17;21.63;;;3.80;92.00;;;;;;10394773;28;20531;-67
2020/12/10 07:35:55;;;;;;;31.98;22.42;;;3.80;92.20;;;;;;10411856;28;20465;-67
2020/12/10 07:40:56;;;;;;;30.38;21.90;;;3.70;92.30;;;;;;10413180;28;20413;-66
2020/12/10 07:45:59;;;;;;;34.20;24.00;;;3.80;92.40;;;;;;10411071;28;20156;-67
2020/12/10 07:51:00;;;;;;;34.10;23.27;;;3.80;92.30;;;;;;10427438;28;20058;-67
2020/12/10 07:56:03;;;;;;;31.83;22.55;;;3.80;92.60;;;;;;10420599;28;20048;-67
2020/12/10 08:01:05;;;;;;;30.52;21.77;;;3.90;92.40;;;;;;10414231;28;20498;-67
2020/12/10 08:06:09;;;;;;;32.58;21.92;;;4.00;92.20;;;;;;10411007;28;20056;-67
2020/12/10 08:11:20;;;;;;;30.05;22.10;;;4.20;92.20;;;;;;10426522;28;20465;-67
2020/12/10 08:16:22;;;;;;;30.70;21.53;;;4.20;91.90;;;;;;10409477;28;20137;-67
2020/12/10 08:21:31;;;;;;;29.08;20.23;;;4.30;92.10;;;;;;10414740;28;20103;-67
2020/12/10 08:26:32;;;;;;;29.88;20.75;;;4.40;91.80;;;;;;10410972;28;20061;-67
2020/12/10 08:31:34;;;;;;;33.78;21.15;;;4.50;91.70;;;;;;10409219;28;20077;-67
2020/12/10 08:36:36;;;;;;;28.50;20.17;;;4.40;91.80;;;;;;10410821;28;20401;-67
2020/12/10 08:41:37;;;;;;;26.05;17.80;;;4.40;91.90;;;;;;10426315;28;20081;-67
2020/12/10 08:46:42;;;;;;;24.10;17.13;;;4.50;91.50;;;;;;10410040;28;20144;-67
2020/12/10 08:51:46;;;;;;;18.05;12.23;;;4.50;91.40;;;;;;10410794;28;20057;-67
2020/12/10 08:56:47;;;;;;;16.33;11.35;;;4.60;91.10;;;;;;10409992;28;20144;-67
2020/12/10 09:01:52;;;;;;;10.73;6.68;;;4.60;91.00;;;;;;10409801;28;20084;-67
2020/12/10 09:06:54;;;;;;;8.18;5.72;;;4.50;90.30;;;;;;10409855;28;20076;-67
2020/12/10 09:11:55;;;;;;;9.02;5.53;;;4.50;90.60;;;;;;10421057;28;20125;-67
2020/12/10 09:16:57;;;;;;;9.82;6.07;;;4.40;88.90;;;;;;10407573;28;20103;-67
2020/12/10 09:21:58;;;;;;;8.00;5.60;;;4.40;89.10;;;;;;10409707;28;20405;-67
2020/12/10 09:27:06;;;;;;;8.25;5.90;;;4.40;89.60;;;;;;10409668;28;20140;-67
2020/12/10 09:32:07;;;;;;;12.40;8.20;;;4.40;88.90;;;;;;10408912;28;20136;-67
2020/12/10 09:37:10;;;;;;;16.92;11.73;;;4.50;89.20;;;;;;10409209;28;20544;-66
2020/12/10 09:42:12;;;;;;;14.02;10.38;;;4.50;89.50;;;;;;10415641;28;20133;-66
2020/12/10 09:47:14;;;;;;;14.60;9.95;;;4.50;89.70;;;;;;10416580;28;20136;-66
2020/12/10 09:52:15;;;;;;;13.75;9.38;;;4.60;89.20;;;;;;10417953;28;20080;-67
2020/12/10 10:02:28;;;;;;;13.05;10.10;;;4.70;88.30;;;;;;10398711;28;20129;-67
2020/12/10 10:07:29;;;;;;;13.63;10.43;;;4.70;87.10;;;;;;10415450;28;20132;-66
2020/12/10 10:12:31;;;;;;;17.55;12.55;;;4.70;88.00;;;;;;10414229;28;20045;-69
2020/12/10 10:17:32;;;;;;;12.52;8.27;;;4.70;86.90;;;;;;10405131;28;20076;-69
2020/12/10 10:22:38;;;;;;;10.75;7.97;;;4.80;85.90;;;;;;10414483;28;20076;-69
2020/12/10 10:27:40;;;;;;;12.95;9.88;;;4.70;86.00;;;;;;10414468;28;20577;-69
2020/12/10 10:32:41;;;;;;;16.38;11.95;;;4.60;85.80;;;;;;10413773;28;20469;-69
2020/12/10 10:37:44;;;;;;;15.70;11.27;;;4.40;85.50;;;;;;10410487;28;20282;-69
2020/12/10 10:42:46;;;;;;;18.88;12.13;;;4.30;87.30;;;;;;10408997;28;20132;-69
2020/12/10 10:47:48;;;;;;;17.40;11.77;;;4.40;87.20;;;;;;10412896;28;20409;-69
2020/12/10 10:52:49;;;;;;;15.80;10.75;;;4.60;85.90;;;;;;10409759;28;20132;-69
2020/12/10 10:57:51;;;;;;;15.63;10.68;;;4.60;85.40;;;;;;10410484;28;20061;-69
2020/12/10 11:02:52;;;;;;;14.98;10.43;;;4.50;85.60;;;;;;10409300;28;20046;-69
2020/12/10 11:07:54;;;;;;;11.43;8.30;;;4.70;86.00;;;;;;10412817;28;20140;-69
2020/12/10 11:12:55;;;;;;;9.70;7.25;;;4.70;84.80;;;;;;10412649;28;20077;-69
2020/12/10 11:17:56;;;;;;;10.18;7.28;;;4.60;85.40;;;;;;10400195;28;20136;-69
2020/12/10 11:22:58;;;;;;;12.55;8.82;;;4.70;85.40;;;;;;10411173;28;20159;-69
2020/12/10 11:27:59;;;;;;;12.57;8.27;;;4.80;85.20;;;;;;10411630;28;20494;-69
2020/12/10 11:33:01;;;;;;;11.63;8.57;;;4.90;84.70;;;;;;10410871;28;20052;-68
2020/12/10 11:38:03;;;;;;;13.18;8.15;;;4.80;85.20;;;;;;10411272;28;20057;-69
2020/12/10 11:43:04;;;;;;;11.05;7.38;;;4.70;85.20;;;;;;10411344;28;20053;-69
2020/12/10 11:48:07;;;;;;;9.85;7.25;;;4.90;85.00;;;;;;10410030;28;20481;-69
2020/12/10 11:53:08;;;;;;;12.40;7.53;;;5.10;84.30;;;;;;10410514;28;20041;-69
2020/12/10 11:58:10;;;;;;;9.38;6.88;;;5.00;83.40;;;;;;10406604;28;20080;-69
2020/12/10 12:03:11;;;;;;;11.95;8.43;;;5.20;83.20;;;;;;10404704;28;20501;-69
2020/12/10 12:08:13;;;;;;;10.25;6.53;;;4.90;83.60;;;;;;10410260;28;20057;-69
2020/12/10 12:13:14;;;;;;;8.48;6.13;;;4.80;84.30;;;;;;10406132;28;20073;-69
2020/12/10 12:18:17;;;;;;;9.48;6.45;;;4.90;85.40;;;;;;10400078;28;20057;-69
2020/12/10 12:23:18;;;;;;;8.30;6.20;;;5.00;85.00;;;;;;10407573;28;20045;-69
2020/12/10 12:28:19;;;;;;;8.85;6.32;;;5.10;85.20;;;;;;10401145;28;20446;-69
2020/12/10 12:33:21;;;;;;;8.98;6.50;;;5.10;84.10;;;;;;10408679;28;20049;-69
2020/12/10 12:38:22;;;;;;;7.78;5.50;;;4.90;83.20;;;;;;10409744;28;20057;-69
2020/12/10 12:43:24;;;;;;;10.75;6.00;;;4.60;84.00;;;;;;10404816;28;20088;-69
2020/12/10 12:48:26;;;;;;;10.45;7.35;;;4.70;84.50;;;;;;10408832;28;20045;-69
2020/12/10 12:53:28;;;;;;;11.68;7.38;;;4.80;84.90;;;;;;10409491;28;20124;-69
2020/12/10 12:58:29;;;;;;;11.50;8.50;;;4.70;86.10;;;;;;10409252;28;20065;-69
2020/12/10 13:03:30;;;;;;;13.48;8.90;;;4.70;84.90;;;;;;10408093;28;20068;-69
2020/12/10 13:08:32;;;;;;;14.07;10.45;;;4.50;85.00;;;;;;10408311;28;20439;-70
2020/12/10 13:13:37;;;;;;;17.45;13.15;;;4.50;86.30;;;;;;10407791;28;20080;-69
2020/12/10 13:18:38;;;;;;;21.60;13.43;;;4.70;85.70;;;;;;10394101;28;20453;-69
2020/12/10 13:23:40;;;;;;;18.23;12.70;;;4.70;86.00;;;;;;10407536;28;20080;-69
2020/12/10 13:28:45;;;;;;;21.25;14.60;;;4.80;86.30;;;;;;10404633;28;20356;-69
2020/12/10 13:33:47;;;;;;;16.17;12.82;;;4.70;86.50;;;;;;10406674;28;20049;-69
2020/12/10 13:38:49;;;;;;;18.08;13.68;;;4.70;85.90;;;;;;10406437;28;20506;-69
2020/12/10 13:43:51;;;;;;;19.30;14.68;;;4.70;86.60;;;;;;10407818;28;20120;-69
2020/12/10 13:48:52;;;;;;;19.48;13.88;;;4.70;86.20;;;;;;10404342;28;20143;-69
2020/12/10 13:53:53;;;;;;;17.55;13.40;;;4.70;86.30;;;;;;10406555;28;20157;-69
2020/12/10 13:58:55;;;;;;;18.55;13.90;;;4.70;85.90;;;;;;10407505;28;20103;-69
2020/12/10 14:03:57;;;;;;;19.13;14.10;;;4.60;85.70;;;;;;10403154;28;20055;-69
2020/12/10 14:09:00;;;;;;;17.17;12.13;;;4.50;86.00;;;;;;10403178;28;20084;-69
2020/12/10 14:14:03;;;;;;;15.15;12.25;;;4.60;85.40;;;;;;10406652;28;20056;-69
2020/12/10 14:19:05;;;;;;;17.55;12.85;;;4.40;85.50;;;;;;10403215;28;20140;-69
2020/12/10 14:24:07;;;;;;;15.15;12.40;;;4.30;85.80;;;;;;10401146;28;20153;-69
2020/12/10 14:29:08;;;;;;;15.50;12.27;;;4.40;85.90;;;;;;10414240;28;20144;-69
2020/12/10 14:34:11;;;;;;;18.77;12.40;;;4.40;85.60;;;;;;10412895;28;20482;-69
2020/12/10 14:39:13;;;;;;;15.88;12.30;;;4.20;85.00;;;;;;10413169;28;20145;-69
2020/12/10 14:44:16;;;;;;;19.05;13.60;;;4.10;85.60;;;;;;10428167;28;20533;-69
2020/12/10 14:49:17;;;;;;;18.75;13.93;;;3.90;85.60;;;;;;10413164;28;20546;-70
2020/12/10 14:54:19;;;;;;;16.85;13.05;;;3.90;85.90;;;;;;10410744;28;20084;-69
2020/12/10 14:59:20;;;;;;;17.17;13.15;;;3.80;86.10;;;;;;10413175;28;20076;-70
2020/12/10 15:04:22;;;;;;;19.20;13.82;;;3.70;86.20;;;;;;10412776;28;20434;-69
2020/12/10 15:09:24;;;;;;;16.38;12.52;;;3.90;86.40;;;;;;10412406;28;20235;-69
2020/12/10 15:14:26;;;;;;;20.48;13.85;;;3.90;86.00;;;;;;10411424;28;20403;-69
2020/12/10 15:19:28;;;;;;;16.85;12.88;;;4.00;86.10;;;;;;10412648;28;20076;-69
2020/12/10 15:24:29;;;;;;;15.63;12.95;;;3.80;85.50;;;;;;10405868;28;20494;-70
2020/12/10 15:29:31;;;;;;;23.48;13.35;;;3.80;85.80;;;;;;10406542;28;20053;-69
2020/12/10 15:34:32;;;;;;;19.52;14.75;;;3.80;85.80;;;;;;10412526;28;20050;-66
2020/12/10 15:39:34;;;;;;;18.67;14.52;;;3.80;85.80;;;;;;10407991;28;20084;-69
2020/12/10 15:44:36;;;;;;;17.90;13.93;;;3.70;85.50;;;;;;10411328;28;20080;-69
2020/12/10 15:49:37;;;;;;;19.33;14.50;;;3.60;85.90;;;;;;10410856;28;20093;-69
2020/12/10 15:54:39;;;;;;;18.27;14.55;;;3.50;85.90;;;;;;10407485;28;20073;-69
2020/12/10 15:59:40;;;;;;;21.52;16.52;;;3.50;86.70;;;;;;10409871;28;20140;-69
2020/12/10 16:04:42;;;;;;;23.13;17.95;;;3.60;86.20;;;;;;10410461;28;20076;-69
2020/12/10 16:09:46;;;;;;;24.65;18.77;;;3.70;85.90;;;;;;10409768;28;20137;-66
2020/12/10 16:14:48;;;;;;;23.80;18.52;;;3.80;86.50;;;;;;10410883;28;20135;-66
2020/12/10 16:19:49;;;;;;;22.98;18.05;;;3.80;86.30;;;;;;10409604;28;20080;-66
2020/12/10 16:24:51;;;;;;;22.45;18.00;;;3.80;86.90;;;;;;10404280;28;20064;-66
2020/12/10 16:29:52;;;;;;;27.15;18.58;;;3.80;86.70;;;;;;10405341;28;20073;-67
2020/12/10 16:34:54;;;;;;;32.80;18.08;;;3.80;86.20;;;;;;10408526;28;20107;-67
2020/12/10 16:39:55;;;;;;;26.17;18.38;;;3.80;86.10;;;;;;10406252;28;20450;-67
2020/12/10 16:44:57;;;;;;;24.85;17.85;;;3.80;85.30;;;;;;10404366;28;20049;-67
2020/12/10 16:49:58;;;;;;;25.20;18.13;;;3.70;86.30;;;;;;10397772;28;20061;-67
2020/12/10 16:55:00;;;;;;;23.63;18.55;;;3.80;86.10;;;;;;10394746;28;20057;-67
2020/12/10 17:00:01;;;;;;;26.58;18.35;;;3.80;86.40;;;;;;10405217;28;20053;-67
2020/12/10 17:05:03;;;;;;;24.38;17.88;;;3.70;85.90;;;;;;10412678;28;20156;-66
2020/12/10 17:10:05;;;;;;;26.13;19.55;;;3.80;86.40;;;;;;10405011;28;20103;-67
2020/12/10 17:15:07;;;;;;;33.65;21.83;;;3.80;86.40;;;;;;10403585;28;20141;-66
2020/12/10 17:20:08;;;;;;;27.63;20.50;;;3.80;86.10;;;;;;10400510;28;20132;-67
2020/12/10 17:25:13;;;;;;;27.60;20.35;;;3.70;86.10;;;;;;10384691;28;20132;-66
2020/12/10 17:30:14;;;;;;;26.05;19.85;;;3.60;86.20;;;;;;10407457;28;20177;-67
2020/12/10 17:35:17;;;;;;;26.58;20.05;;;3.60;86.50;;;;;;10406760;28;20103;-67
2020/12/10 17:40:19;;;;;;;25.05;18.83;;;3.50;87.40;;;;;;10408344;28;20053;-66
2020/12/10 17:45:20;;;;;;;23.20;17.20;;;3.50;86.70;;;;;;10400224;28;20089;-67
2020/12/10 17:50:24;;;;;;;18.02;14.00;;;3.40;87.00;;;;;;10407824;28;20092;-67
2020/12/10 17:55:26;;;;;;;17.42;13.88;;;3.50;86.80;;;;;;10407467;28;20049;-66
2020/12/10 18:00:28;;;;;;;16.63;12.82;;;3.50;87.00;;;;;;10426253;28;20128;-66
2020/12/10 18:05:30;;;;;;;17.07;11.40;;;3.40;87.10;;;;;;10415292;28;20124;-66
2020/12/10 18:10:32;;;;;;;14.48;11.48;;;3.40;87.20;;;;;;10424374;28;20232;-67
2020/12/10 18:15:34;;;;;;;14.68;10.48;;;3.50;87.10;;;;;;10435129;28;20524;-66
2020/12/10 18:20:35;;;;;;;15.35;10.88;;;3.60;86.70;;;;;;10432149;28;20080;-66
2020/12/10 18:25:36;;;;;;;15.55;11.88;;;3.70;86.90;;;;;;10420549;28;20501;-67
2020/12/10 18:30:38;;;;;;;15.43;11.85;;;3.90;86.80;;;;;;10413570;28;20049;-67
2020/12/10 18:35:39;;;;;;;15.55;12.23;;;3.80;86.20;;;;;;10414435;28;20565;-66
2020/12/10 18:40:41;;;;;;;18.95;13.45;;;3.80;86.30;;;;;;10418838;28;20140;-66
2020/12/10 18:45:42;;;;;;;20.40;14.10;;;3.50;87.30;;;;;;10413225;28;20490;-67
2020/12/10 18:50:44;;;;;;;17.75;12.88;;;3.60;86.70;;;;;;10380842;28;20141;-67
2020/12/10 18:55:45;;;;;;;17.02;12.95;;;3.70;86.50;;;;;;10398407;28;20140;-66
2020/12/10 19:00:47;;;;;;;19.25;14.50;;;3.80;87.20;;;;;;10413017;28;20401;-66
2020/12/10 19:05:48;;;;;;;22.13;16.48;;;3.80;86.80;;;;;;10403178;28;20080;-66
2020/12/10 19:10:50;;;;;;;20.70;16.63;;;3.70;87.20;;;;;;10410075;28;20051;-66
2020/12/10 19:15:52;;;;;;;21.10;15.23;;;3.90;87.80;;;;;;10406404;28;20132;-67
2020/12/10 19:20:53;;;;;;;42.30;24.20;;;4.00;88.20;;;;;;10414122;28;20077;-67
2020/12/10 19:25:55;;;;;;;45.47;26.10;;;4.00;87.50;;;;;;10410239;28;20046;-67
2020/12/10 19:31:10;;;;;;;23.92;16.88;;;4.00;87.90;;;;;;10410761;28;20560;-66
2020/12/10 19:36:11;;;;;;;24.13;16.30;;;3.90;87.90;;;;;;10414073;28;20521;-67
2020/12/10 19:41:13;;;;;;;26.15;20.10;;;3.90;87.90;;;;;;10413828;28;20068;-67
2020/12/10 19:46:16;;;;;;;27.05;20.10;;;3.90;88.20;;;;;;10412446;28;20103;-66
2020/12/10 19:51:18;;;;;;;30.75;21.58;;;3.90;88.10;;;;;;10411964;28;20053;-67
2020/12/10 19:56:20;;;;;;;28.88;20.85;;;3.80;88.50;;;;;;10413816;28;20140;-67
2020/12/10 20:01:22;;;;;;;29.65;21.10;;;3.90;88.90;;;;;;10412294;28;20045;-66
2020/12/10 20:06:24;;;;;;;29.85;21.55;;;3.90;88.80;;;;;;10411366;28;20543;-67
2020/12/10 20:11:26;;;;;;;30.02;21.20;;;3.90;89.40;;;;;;10411151;28;20495;-67
2020/12/10 20:16:28;;;;;;;29.23;20.83;;;3.90;89.20;;;;;;10410622;28;20060;-67
2020/12/10 20:21:32;;;;;;;32.50;22.30;;;3.90;89.40;;;;;;10411668;28;20045;-66
2020/12/10 20:26:43;;;;;;;26.02;19.95;;;3.90;89.50;;;;;;10402246;28;20134;-67
2020/12/10 20:31:44;;;;;;;25.83;19.40;;;4.00;89.40;;;;;;10391543;28;20088;-67
2020/12/10 20:36:46;;;;;;;25.20;18.77;;;4.00;89.60;;;;;;10411234;28;20073;-66
2020/12/10 20:41:47;;;;;;;26.55;19.10;;;4.00;89.60;;;;;;10411548;28;20081;-67
2020/12/10 20:46:49;;;;;;;27.15;19.15;;;4.00;89.70;;;;;;10410553;28;20072;-66
2020/12/10 20:51:51;;;;;;;26.30;19.98;;;4.00;90.20;;;;;;10410870;28;20046;-67
2020/12/10 20:56:52;;;;;;;28.60;21.30;;;4.10;90.00;;;;;;10410917;28;20045;-67
2020/12/10 21:01:54;;;;;;;28.27;20.25;;;4.00;90.00;;;;;;10410254;28;20053;-67
2020/12/10 21:06:56;;;;;;;32.03;20.45;;;4.00;90.20;;;;;;10409597;28;20045;-67
2020/12/10 21:11:58;;;;;;;27.83;20.25;;;4.10;90.00;;;;;;10409157;28;20037;-66
2020/12/10 21:17:01;;;;;;;23.88;18.48;;;4.10;89.70;;;;;;10409204;28;20132;-67
2020/12/10 21:22:09;;;;;;;27.38;19.45;;;4.00;90.10;;;;;;10410431;28;20047;-66
2020/12/10 21:27:11;;;;;;;27.17;19.48;;;4.00;90.20;;;;;;10408363;28;20619;-67
2020/12/10 21:32:13;;;;;;;26.67;18.73;;;4.10;90.10;;;;;;10408821;28;20132;-66
2020/12/10 21:37:14;;;;;;;25.25;18.65;;;4.10;90.10;;;;;;10408905;28;20493;-66
2020/12/10 21:42:16;;;;;;;25.58;18.83;;;4.10;90.40;;;;;;10410772;28;20091;-67
2020/12/10 21:47:18;;;;;;;26.02;18.20;;;4.10;90.40;;;;;;10408695;28;20088;-66
2020/12/10 21:52:20;;;;;;;23.80;17.80;;;4.20;90.00;;;;;;10409811;28;20489;-67
2020/12/10 21:57:23;;;;;;;27.30;18.13;;;4.10;90.10;;;;;;10408864;28;20088;-67
2020/12/10 22:02:24;;;;;;;26.38;18.70;;;4.00;90.40;;;;;;10408931;28;20089;-67
2020/12/10 22:07:26;;;;;;;27.52;20.40;;;4.00;90.40;;;;;;10409014;28;20520;-67
2020/12/10 22:12:29;;;;;;;24.13;18.30;;;4.10;90.30;;;;;;10409493;28;20057;-67
2020/12/10 22:17:31;;;;;;;23.33;18.25;;;4.20;90.30;;;;;;10408053;28;20426;-67
2020/12/10 22:22:32;;;;;;;25.35;18.05;;;4.20;90.10;;;;;;10404894;28;20099;-67
2020/12/10 22:27:34;;;;;;;25.77;18.20;;;4.10;90.30;;;;;;10405893;28;20069;-66
2020/12/10 22:32:35;;;;;;;23.02;17.80;;;4.00;90.30;;;;;;10407421;28;20045;-66
2020/12/10 22:37:37;;;;;;;22.27;17.42;;;3.90;90.50;;;;;;10422961;28;20128;-67
2020/12/10 22:42:38;;;;;;;25.85;18.27;;;3.90;90.60;;;;;;10407697;28;20482;-66
2020/12/10 22:47:39;;;;;;;23.55;17.55;;;4.00;90.50;;;;;;10410252;28;20109;-66
2020/12/10 22:52:41;;;;;;;23.13;17.75;;;4.00;90.50;;;;;;10413525;28;20064;-67
2020/12/10 22:57:42;;;;;;;24.25;18.13;;;4.00;90.50;;;;;;10412357;28;20149;-67
2020/12/10 23:02:48;;;;;;;23.08;17.33;;;4.10;90.70;;;;;;10412290;28;20049;-67
2020/12/10 23:07:50;;;;;;;22.58;17.83;;;4.00;90.50;;;;;;10414289;28;20041;-67
2020/12/10 23:12:51;;;;;;;22.50;17.48;;;4.10;90.40;;;;;;10412975;28;20049;-66
2020/12/10 23:17:53;;;;;;;25.48;17.13;;;4.10;90.30;;;;;;10413899;28;20107;-67
2020/12/10 23:22:54;;;;;;;23.10;17.27;;;4.20;90.40;;;;;;10413550;28;20068;-67
2020/12/10 23:27:56;;;;;;;21.80;17.02;;;4.10;90.30;;;;;;10414086;28;20057;-66
2020/12/10 23:32:58;;;;;;;20.10;15.40;;;4.00;90.40;;;;;;10412276;28;20057;-66
2020/12/10 23:38:00;;;;;;;21.90;16.17;;;3.90;90.50;;;;;;10413273;28;20073;-67
2020/12/10 23:43:01;;;;;;;21.92;17.25;;;4.00;90.70;;;;;;10412606;28;20497;-66
2020/12/10 23:48:03;;;;;;;22.15;16.40;;;4.20;90.40;;;;;;10411283;28;20539;-67
2020/12/10 23:53:04;;;;;;;21.23;15.48;;;4.20;90.20;;;;;;10411032;28;20414;-67
2020/12/10 23:58:06;;;;;;;18.48;14.57;;;4.20;90.30;;;;;;10409830;28;20061;-67
